createdAt,value
2019-04-10T00:01:42.340Z,5.20
2019-04-10T00:04:12.588Z,6.47
2019-04-10T00:06:42.699Z,10.20
2019-04-10T00:09:13.202Z,7.60
2019-04-10T00:11:43.841Z,6.83
2019-04-10T00:14:14.307Z,5.97
2019-04-10T00:16:44.670Z,6.10
2019-04-10T00:19:15.061Z,7.00
2019-04-10T00:21:45.533Z,6.60
2019-04-10T00:24:16.015Z,6.00
2019-04-10T00:26:46.469Z,7.60
2019-04-10T00:29:16.845Z,4.50
2019-04-10T00:31:47.258Z,6.67
2019-04-10T00:34:17.809Z,6.13
2019-04-10T00:36:49.061Z,8.87
2019-04-10T00:39:18.652Z,4.73
2019-04-10T00:41:49.129Z,4.47
2019-04-10T00:44:19.561Z,4.57
2019-04-10T00:46:50.674Z,6.20
2019-04-10T00:49:21.561Z,5.13
2019-04-10T00:51:52.007Z,6.03
2019-04-10T00:54:22.185Z,5.30
2019-04-10T00:56:52.831Z,6.03
2019-04-10T00:59:24.144Z,4.93
2019-04-10T01:01:54.291Z,5.50
2019-04-10T01:04:25.018Z,4.97
2019-04-10T01:06:55.428Z,5.43
2019-04-10T01:09:25.941Z,3.73
2019-04-10T01:11:57.216Z,4.17
2019-04-10T01:14:26.993Z,6.30
2019-04-10T01:16:57.875Z,5.07
2019-04-10T01:19:28.184Z,7.60
2019-04-10T01:21:58.964Z,4.70
2019-04-10T01:24:30.018Z,3.50
2019-04-10T01:26:59.348Z,8.50
2019-04-10T01:29:29.539Z,3.23
2019-04-10T01:32:00.051Z,4.07
2019-04-10T01:34:31.519Z,4.80
2019-04-10T01:37:00.955Z,3.60
2019-04-10T01:39:32.803Z,2.90
2019-04-10T01:42:03.983Z,2.77
2019-04-10T01:44:33.889Z,3.87
2019-04-10T01:47:04.776Z,3.63
2019-04-10T01:49:35.126Z,5.00
2019-04-10T01:52:05.560Z,3.30
2019-04-10T01:54:36.175Z,6.57
2019-04-10T01:57:06.629Z,4.37
2019-04-10T01:59:38.198Z,3.60
2019-04-10T02:02:12.696Z,4.17
2019-04-10T02:04:43.754Z,4.93
2019-04-10T02:07:12.522Z,2.57
2019-04-10T02:09:43.495Z,4.00
2019-04-10T02:12:13.289Z,3.17
2019-04-10T02:14:44.634Z,3.53
2019-04-10T02:17:14.716Z,3.53
2019-04-10T02:19:44.846Z,2.87
2019-04-10T02:22:16.088Z,3.00
2019-04-10T02:24:45.718Z,4.07
2019-04-10T02:27:16.258Z,3.00
2019-04-10T02:29:46.757Z,3.97
2019-04-10T02:32:18.778Z,3.00
2019-04-10T02:34:49.131Z,4.17
2019-04-10T02:37:19.221Z,2.77
2019-04-10T02:39:52.988Z,3.13
2019-04-10T02:42:20.852Z,2.80
2019-04-10T02:44:50.371Z,2.10
2019-04-10T02:47:21.143Z,5.63
2019-04-10T02:49:52.177Z,3.83
2019-04-10T02:52:22.610Z,2.97
2019-04-10T02:54:53.741Z,4.23
2019-04-10T02:57:23.109Z,2.03
2019-04-10T02:59:53.875Z,1.70
2019-04-10T03:02:24.363Z,2.63
2019-04-10T03:04:55.105Z,1.83
2019-04-10T03:07:25.905Z,5.13
2019-04-10T03:10:06.048Z,5.27
2019-04-10T03:12:28.257Z,3.20
2019-04-10T03:14:58.930Z,4.87
2019-04-10T03:17:28.233Z,5.30
2019-04-10T03:19:58.901Z,4.40
2019-04-10T03:22:29.381Z,2.93
2019-04-10T03:25:00.322Z,6.17
2019-04-10T03:27:30.368Z,4.60
2019-04-10T03:30:00.781Z,4.00
2019-04-10T03:32:38.855Z,4.47
2019-04-10T03:35:10.938Z,4.37
2019-04-10T03:37:42.539Z,5.10
2019-04-10T03:40:13.278Z,4.20
2019-04-10T03:42:43.379Z,6.23
2019-04-10T03:45:13.638Z,4.67
2019-04-10T03:47:44.169Z,4.77
2019-04-10T03:50:14.697Z,5.23
2019-04-10T03:52:45.408Z,5.97
2019-04-10T03:55:16.657Z,5.57
2019-04-10T03:57:46.926Z,4.20
2019-04-10T04:00:16.958Z,4.80
2019-04-10T04:02:48.312Z,4.53
2019-04-10T04:05:18.320Z,4.10
2019-04-10T04:07:48.810Z,3.73
2019-04-10T04:10:20.407Z,4.07
2019-04-10T04:12:49.597Z,4.33
2019-04-10T04:15:20.130Z,5.80
2019-04-10T04:17:50.619Z,11.23
2019-04-10T04:20:21.135Z,4.07
2019-04-10T04:22:52.833Z,2.93
2019-04-10T04:25:22.199Z,4.50
2019-04-10T04:27:53.810Z,3.73
2019-04-10T04:30:23.197Z,3.40
2019-04-10T04:32:53.929Z,4.80
2019-04-10T04:35:24.261Z,5.37
2019-04-10T04:37:55.013Z,5.83
2019-04-10T04:40:25.909Z,4.93
2019-04-10T04:42:56.349Z,9.13
2019-04-10T04:45:27.619Z,7.23
2019-04-10T04:47:57.606Z,3.93
2019-04-10T04:50:29.193Z,6.20
2019-04-10T04:52:58.746Z,5.80
2019-04-10T04:55:29.064Z,7.87
2019-04-10T04:57:59.865Z,7.60
2019-04-10T05:00:30.048Z,6.07
2019-04-10T05:03:00.610Z,8.13
2019-04-10T05:05:31.358Z,6.53
2019-04-10T05:08:02.928Z,4.60
2019-04-10T05:10:31.519Z,6.83
2019-04-10T05:13:02.231Z,7.00
2019-04-10T05:15:33.264Z,6.20
2019-04-10T05:18:04.049Z,6.17
2019-04-10T05:20:43.722Z,7.07
2019-04-10T05:23:04.265Z,5.57
2019-04-10T05:25:35.899Z,6.27
2019-04-10T05:28:05.843Z,6.97
2019-04-10T05:30:36.272Z,6.57
2019-04-10T05:33:06.753Z,5.63
2019-04-10T05:35:37.351Z,7.30
2019-04-10T05:38:08.053Z,7.73
2019-04-10T05:40:38.416Z,6.10
2019-04-10T05:43:09.348Z,10.27
2019-04-10T05:45:40.123Z,6.10
2019-04-10T05:48:11.072Z,7.87
2019-04-10T05:50:52.533Z,5.73
2019-04-10T05:53:11.979Z,3.90
2019-04-10T05:55:42.437Z,6.70
2019-04-10T05:58:13.363Z,7.40
2019-04-10T06:00:43.422Z,8.63
2019-04-10T06:03:14.469Z,7.13
2019-04-10T06:05:44.497Z,11.50
2019-04-10T06:08:15.905Z,6.87
2019-04-10T06:10:45.710Z,5.73
2019-04-10T06:13:17.090Z,8.63
2019-04-10T06:15:47.438Z,6.20
2019-04-10T06:18:16.875Z,22.17
2019-04-10T06:20:47.336Z,12.83
2019-04-10T06:23:17.737Z,10.20
2019-04-10T06:25:48.138Z,46.20
2019-04-10T06:28:18.784Z,23.20
2019-04-10T06:30:50.829Z,7.63
2019-04-10T06:33:22.131Z,7.13
2019-04-10T06:35:52.868Z,5.00
2019-04-10T06:38:23.115Z,7.63
2019-04-10T06:40:52.897Z,9.07
2019-04-10T06:43:23.741Z,5.10
2019-04-10T06:45:53.901Z,8.93
2019-04-10T06:48:25.795Z,7.53
2019-04-10T06:50:55.658Z,7.23
2019-04-10T06:53:25.881Z,7.37
2019-04-10T06:55:56.528Z,8.43
2019-04-10T06:58:27.446Z,4.00
2019-04-10T07:00:58.053Z,9.80
2019-04-10T07:03:44.761Z,6.63
2019-04-10T07:06:07.854Z,9.23
2019-04-10T07:08:29.621Z,5.90
2019-04-10T07:11:05.223Z,5.77
2019-04-10T07:13:30.190Z,6.37
2019-04-10T07:16:00.571Z,5.07
2019-04-10T07:18:31.250Z,6.27
2019-04-10T07:21:02.109Z,8.13
2019-04-10T07:23:33.795Z,9.40
2019-04-10T07:26:03.806Z,11.67
2019-04-10T07:28:36.559Z,6.80
2019-04-10T07:31:08.090Z,11.33
2019-04-10T07:33:35.520Z,5.53
2019-04-10T07:36:10.755Z,5.10
2019-04-10T07:38:37.278Z,5.27
2019-04-10T07:41:15.365Z,7.80
2019-04-10T07:43:38.729Z,5.27
2019-04-10T07:46:09.189Z,5.00
2019-04-10T07:48:39.802Z,6.87
2019-04-10T07:51:11.221Z,4.43
2019-04-10T07:53:41.487Z,5.87
2019-04-10T07:56:16.239Z,3.40
2019-04-10T07:58:42.029Z,6.90
2019-04-10T08:01:12.419Z,6.27
2019-04-10T08:03:43.744Z,5.70
2019-04-10T08:06:13.206Z,6.07
2019-04-10T08:08:44.720Z,7.57
2019-04-10T08:11:14.105Z,4.97
2019-04-10T08:13:44.868Z,4.43
2019-04-10T08:16:15.282Z,6.00
2019-04-10T08:18:45.865Z,7.43
2019-04-10T08:21:16.366Z,5.77
2019-04-10T08:23:46.899Z,7.63
2019-04-10T08:26:18.151Z,7.03
2019-04-10T08:28:48.179Z,8.77
2019-04-10T08:31:19.077Z,7.20
2019-04-10T08:33:49.049Z,6.63
2019-04-10T08:36:19.508Z,6.00
2019-04-10T08:38:49.354Z,8.50
2019-04-10T08:41:19.546Z,8.37
2019-04-10T08:43:50.287Z,8.87
2019-04-10T08:46:20.502Z,10.43
2019-04-10T08:48:51.884Z,7.43
2019-04-10T08:51:21.689Z,6.97
2019-04-10T08:53:54.956Z,6.97
2019-04-10T08:56:22.912Z,4.80
2019-04-10T08:58:53.499Z,5.63
2019-04-10T09:01:25.038Z,8.87
2019-04-10T09:03:55.219Z,6.03
2019-04-10T09:06:25.247Z,6.83
2019-04-10T09:08:55.849Z,5.60
2019-04-10T09:11:29.403Z,6.47
2019-04-10T09:13:56.939Z,12.17
2019-04-10T09:16:26.775Z,7.83
2019-04-10T09:18:57.871Z,5.97
2019-04-10T09:21:28.142Z,7.30
2019-04-10T09:23:59.523Z,5.40
2019-04-10T09:26:28.995Z,6.13
2019-04-10T09:29:02.453Z,8.47
2019-04-10T09:31:32.097Z,8.87
2019-04-10T09:34:03.369Z,7.33
2019-04-10T09:36:33.383Z,8.27
2019-04-10T09:39:05.080Z,8.30
2019-04-10T09:41:36.169Z,7.87
2019-04-10T09:44:06.575Z,10.73
2019-04-10T09:46:37.302Z,8.73
2019-04-10T09:49:07.464Z,14.70
2019-04-10T09:51:38.288Z,7.90
2019-04-10T09:54:09.812Z,8.83
2019-04-10T09:56:39.103Z,18.40
2019-04-10T09:59:09.710Z,11.17
2019-04-10T10:01:40.306Z,11.53
2019-04-10T10:04:10.868Z,7.23
2019-04-10T10:06:41.316Z,8.77
2019-04-10T10:09:12.662Z,9.33
2019-04-10T10:11:42.736Z,7.53
2019-04-10T10:14:12.841Z,11.03
2019-04-10T10:16:44.210Z,8.70
2019-04-10T10:19:14.186Z,9.07
2019-04-10T10:21:44.903Z,7.50
2019-04-10T10:24:16.272Z,8.27
2019-04-10T10:26:46.609Z,9.27
2019-04-10T10:29:17.675Z,8.60
2019-04-10T10:31:50.564Z,9.50
2019-04-10T10:34:18.484Z,7.43
2019-04-10T10:36:50.674Z,8.50
2019-04-10T10:39:20.966Z,12.23
2019-04-10T10:41:51.121Z,8.23
2019-04-10T10:44:21.816Z,7.53
2019-04-10T10:46:51.664Z,9.53
2019-04-10T10:49:22.297Z,8.37
2019-04-10T10:51:53.284Z,9.10
2019-04-10T10:54:23.650Z,9.03
2019-04-10T10:56:55.007Z,10.50
2019-04-10T10:59:25.239Z,9.67
2019-04-10T11:01:55.956Z,8.90
2019-04-10T11:04:27.376Z,11.90
2019-04-10T11:07:00.433Z,9.17
2019-04-10T11:09:28.521Z,8.73
2019-04-10T11:11:58.238Z,7.27
2019-04-10T11:14:29.909Z,9.83
2019-04-10T11:16:59.326Z,8.93
2019-04-10T11:19:31.123Z,6.77
2019-04-10T11:22:00.979Z,10.73
2019-04-10T11:24:31.580Z,9.43
2019-04-10T11:27:02.808Z,9.63
2019-04-10T11:29:32.845Z,7.40
2019-04-10T11:32:04.220Z,8.87
2019-04-10T11:34:35.551Z,10.60
2019-04-10T11:37:19.310Z,9.83
2019-04-10T11:39:38.373Z,9.80
2019-04-10T11:42:06.727Z,7.40
2019-04-10T11:44:38.943Z,8.30
2019-04-10T11:47:09.419Z,9.10
2019-04-10T11:49:42.589Z,10.77
2019-04-10T11:52:10.513Z,9.23
2019-04-10T11:57:13.199Z,11.80
2019-04-10T11:59:43.949Z,7.10
2019-04-10T12:02:13.948Z,9.23
2019-04-10T12:07:49.122Z,11.63
2019-04-10T12:12:14.917Z,8.60
2019-04-10T12:14:45.859Z,9.63
2019-04-10T12:17:16.389Z,7.10
2019-04-10T12:19:46.998Z,7.80
2019-04-10T12:22:17.550Z,8.40
2019-04-10T12:24:49.889Z,8.97
2019-04-10T12:27:18.502Z,10.73
2019-04-10T12:29:49.610Z,9.90
2019-04-10T12:32:20.839Z,10.03
2019-04-10T12:34:50.973Z,11.00
2019-04-10T12:37:21.541Z,6.53
2019-04-10T12:39:52.988Z,7.97
2019-04-10T12:42:23.870Z,8.87
2019-04-10T12:44:53.209Z,7.93
2019-04-10T12:47:23.885Z,9.77
2019-04-10T12:49:54.318Z,7.40
2019-04-10T12:52:24.813Z,6.33
2019-04-10T12:54:55.329Z,7.57
2019-04-10T12:57:26.651Z,8.67
2019-04-10T13:00:01.545Z,8.00
2019-04-10T13:02:28.024Z,10.43
2019-04-10T13:04:57.636Z,9.07
2019-04-10T13:07:27.963Z,6.63
2019-04-10T13:09:58.476Z,8.47
2019-04-10T13:12:29.293Z,10.80
2019-04-10T13:14:59.638Z,10.80
2019-04-10T13:17:30.955Z,7.93
2019-04-10T13:20:01.847Z,7.83
2019-04-10T13:22:31.817Z,10.90
2019-04-10T13:25:02.152Z,11.27
2019-04-10T13:27:32.727Z,9.83
2019-04-10T13:30:04.890Z,7.57
2019-04-10T13:32:34.809Z,9.17
2019-04-10T13:35:05.928Z,10.07
2019-04-10T13:37:35.860Z,8.43
2019-04-10T13:40:05.837Z,9.03
2019-04-10T13:42:37.139Z,9.23
2019-04-10T13:45:07.114Z,8.10
2019-04-10T13:47:38.691Z,8.17
2019-04-10T13:50:09.286Z,6.27
2019-04-10T13:52:40.534Z,9.13
2019-04-10T13:55:11.593Z,8.17
2019-04-10T13:57:40.816Z,8.77
2019-04-10T14:00:15.493Z,11.57
2019-04-10T14:02:45.989Z,13.97
2019-04-10T14:05:17.793Z,10.10
2019-04-10T14:07:47.129Z,11.93
2019-04-10T14:10:18.750Z,12.87
2019-04-10T14:12:49.339Z,10.67
2019-04-10T14:15:20.147Z,9.70
2019-04-10T14:17:50.108Z,9.53
2019-04-10T14:20:21.658Z,21.30
2019-04-10T14:22:58.097Z,16.97
2019-04-10T14:25:35.841Z,19.10
2019-04-10T14:28:06.987Z,17.70
2019-04-10T14:30:39.662Z,13.53
2019-04-10T14:33:08.405Z,14.60
2019-04-10T14:35:39.072Z,13.63
2019-04-10T14:38:10.623Z,15.53
2019-04-10T14:40:40.154Z,11.23
2019-04-10T14:43:09.937Z,12.13
2019-04-10T14:45:41.559Z,12.47
2019-04-10T14:48:11.863Z,14.90
2019-04-10T14:50:41.995Z,12.93
2019-04-10T14:53:11.937Z,11.63
2019-04-10T14:55:42.513Z,16.20
2019-04-10T14:58:21.960Z,15.87
2019-04-10T15:00:49.345Z,12.10
2019-04-10T15:03:18.443Z,10.20
2019-04-10T15:05:51.456Z,14.23
2019-04-10T15:08:19.797Z,20.83
2019-04-10T15:10:50.266Z,12.13
2019-04-10T15:13:22.457Z,9.83
2019-04-10T15:15:52.453Z,17.63
2019-04-10T15:18:22.574Z,11.10
2019-04-10T15:20:52.480Z,14.93
2019-04-10T15:23:22.841Z,17.00
2019-04-10T15:25:53.376Z,16.77
2019-04-10T15:28:23.925Z,17.97
2019-04-10T15:30:55.127Z,13.57
2019-04-10T15:33:26.462Z,11.97
2019-04-10T15:35:55.531Z,12.43
2019-04-10T15:38:27.006Z,26.00
2019-04-10T15:40:56.825Z,13.43
2019-04-10T15:43:27.932Z,12.23
2019-04-10T15:45:57.781Z,10.23
2019-04-10T15:48:29.382Z,8.83
2019-04-10T15:51:00.078Z,16.17
2019-04-10T15:53:29.722Z,11.73
2019-04-10T15:56:01.202Z,10.83
2019-04-10T15:58:31.142Z,9.73
2019-04-10T16:01:02.443Z,12.73
2019-04-10T16:03:32.862Z,14.47
2019-04-10T16:06:03.963Z,11.00
2019-04-10T16:08:34.435Z,11.33
2019-04-10T16:11:09.848Z,16.07
2019-04-10T16:13:42.079Z,14.50
2019-04-10T16:16:17.550Z,15.27
2019-04-10T16:18:49.249Z,10.20
2019-04-10T16:21:20.343Z,9.43
2019-04-10T16:23:54.390Z,13.70
2019-04-10T16:26:25.300Z,12.03
2019-04-10T16:28:56.199Z,10.07
2019-04-10T16:31:28.294Z,9.80
2019-04-10T16:33:58.882Z,13.47
2019-04-10T16:36:29.783Z,11.50
2019-04-10T16:39:00.805Z,11.30
2019-04-10T16:41:31.144Z,12.97
2019-04-10T16:44:01.087Z,13.70
2019-04-10T16:46:32.061Z,18.93
2019-04-10T16:49:02.349Z,18.53
2019-04-10T16:51:32.849Z,16.10
2019-04-10T16:54:04.222Z,12.57
2019-04-10T16:56:33.919Z,9.37
2019-04-10T16:59:04.692Z,16.37
2019-04-10T17:01:35.148Z,33.30
2019-04-10T17:04:06.794Z,15.17
2019-04-10T17:06:36.538Z,41.30
2019-04-10T17:09:08.157Z,14.83
2019-04-10T17:11:38.830Z,17.47
2019-04-10T17:14:08.380Z,24.70
2019-04-10T17:16:39.881Z,16.67
2019-04-10T17:19:09.729Z,33.60
2019-04-10T17:21:40.493Z,21.53
2019-04-10T17:24:11.247Z,38.40
2019-04-10T17:26:41.316Z,33.10
2019-04-10T17:29:12.546Z,44.73
2019-04-10T17:31:43.546Z,107.93
2019-04-10T17:34:14.537Z,26.27
2019-04-10T17:36:45.261Z,17.20
2019-04-10T17:39:17.934Z,21.60
2019-04-10T17:41:48.170Z,21.70
2019-04-10T17:44:18.413Z,19.50
2019-04-10T17:46:49.167Z,22.43
2019-04-10T17:49:19.401Z,62.97
2019-04-10T17:51:50.252Z,34.87
2019-04-10T17:54:20.441Z,35.63
2019-04-10T17:56:50.885Z,32.50
2019-04-10T17:59:22.456Z,25.33
2019-04-10T18:01:52.101Z,26.97
2019-04-10T18:04:22.646Z,28.10
2019-04-10T18:06:53.118Z,22.20
2019-04-10T18:09:24.230Z,21.30
2019-04-10T18:11:54.450Z,18.73
2019-04-10T18:14:24.990Z,21.20
2019-04-10T18:16:55.403Z,56.90
2019-04-10T18:19:25.935Z,64.93
2019-04-10T18:21:56.604Z,58.80
2019-04-10T18:24:26.934Z,37.67
2019-04-10T18:26:58.425Z,79.70
2019-04-10T18:29:28.112Z,94.53
2019-04-10T18:32:02.115Z,52.83
2019-04-10T18:34:31.245Z,60.10
2019-04-10T18:37:03.707Z,64.37
2019-04-10T18:39:32.664Z,50.73
2019-04-10T18:42:03.527Z,41.70
2019-04-10T18:44:33.563Z,48.33
2019-04-10T18:47:04.901Z,49.60
2019-04-10T18:49:35.749Z,38.43
2019-04-10T18:52:05.733Z,51.93
2019-04-10T18:54:36.295Z,126.40
2019-04-10T18:57:07.383Z,158.33
2019-04-10T18:59:42.844Z,126.97
2019-04-10T19:02:21.846Z,63.73
2019-04-10T19:05:00.284Z,67.80
2019-04-10T19:07:30.713Z,25.70
2019-04-10T19:10:02.167Z,26.40
2019-04-10T19:12:32.573Z,23.90
2019-04-10T19:15:02.374Z,19.70
2019-04-10T19:17:33.292Z,16.83
2019-04-10T19:20:04.143Z,17.30
2019-04-10T19:22:34.656Z,33.97
2019-04-10T19:25:03.969Z,44.93
2019-04-10T19:27:34.519Z,105.47
2019-04-10T19:30:06.696Z,90.53
2019-04-10T19:32:37.588Z,45.03
2019-04-10T19:35:08.229Z,23.30
2019-04-10T19:37:38.938Z,27.33
2019-04-10T19:40:09.703Z,22.87
2019-04-10T19:42:41.686Z,17.77
2019-04-10T19:45:11.998Z,17.83
2019-04-10T19:47:42.250Z,11.80
2019-04-10T19:50:13.060Z,11.73
2019-04-10T19:52:44.544Z,10.47
2019-04-10T19:55:14.097Z,14.87
2019-04-10T19:57:45.720Z,28.97
2019-04-10T20:00:16.585Z,40.37
2019-04-10T20:02:46.909Z,50.83
2019-04-10T20:05:17.142Z,13.20
2019-04-10T20:07:47.920Z,9.77
2019-04-10T20:10:19.269Z,19.20
2019-04-10T20:12:49.184Z,10.73
2019-04-10T20:15:20.489Z,12.53
2019-04-10T20:17:50.723Z,11.33
2019-04-10T20:20:21.410Z,18.03
2019-04-10T20:22:52.041Z,19.33
2019-04-10T20:25:22.572Z,10.33
2019-04-10T20:27:53.104Z,13.57
2019-04-10T20:30:24.481Z,11.13
2019-04-10T20:32:55.181Z,10.23
2019-04-10T20:35:26.585Z,9.13
2019-04-10T20:37:56.927Z,14.40
2019-04-10T20:40:27.628Z,11.53
2019-04-10T20:42:58.369Z,10.70
2019-04-10T20:45:28.017Z,14.13
2019-04-10T20:47:58.660Z,11.33
2019-04-10T20:50:30.005Z,8.27
2019-04-10T20:52:59.887Z,12.57
2019-04-10T20:55:30.450Z,10.83
2019-04-10T20:58:03.457Z,10.30
2019-04-10T21:00:34.292Z,10.77
2019-04-10T21:03:03.934Z,11.67
2019-04-10T21:05:35.809Z,8.60
2019-04-10T21:08:05.318Z,18.13
2019-04-10T21:10:35.741Z,10.00
2019-04-10T21:13:06.486Z,12.90
2019-04-10T21:15:37.607Z,11.67
2019-04-10T21:18:06.958Z,12.53
2019-04-10T21:20:37.590Z,11.50
2019-04-10T21:23:08.057Z,13.80
2019-04-10T21:25:39.435Z,11.07
2019-04-10T21:28:09.681Z,9.20
2019-04-10T21:31:16.769Z,9.80
2019-04-10T21:33:52.659Z,11.87
2019-04-10T21:36:22.709Z,10.87
2019-04-10T21:38:52.629Z,10.77
2019-04-10T21:41:24.056Z,10.13
2019-04-10T21:43:53.881Z,9.93
2019-04-10T21:46:24.314Z,10.10
2019-04-10T21:48:55.123Z,14.47
2019-04-10T21:51:25.473Z,9.70
2019-04-10T21:53:56.184Z,9.27
2019-04-10T21:56:26.699Z,10.07
2019-04-10T21:58:57.453Z,12.63
2019-04-10T22:01:28.401Z,12.60
2019-04-10T22:03:58.969Z,23.67
2019-04-10T22:06:37.795Z,12.43
2019-04-10T22:09:23.889Z,10.27
2019-04-10T22:11:55.857Z,10.47
2019-04-10T22:14:26.557Z,11.47
2019-04-10T22:16:58.122Z,8.70
2019-04-10T22:19:28.433Z,12.40
2019-04-10T22:21:58.494Z,9.70
2019-04-10T22:24:29.852Z,9.07
2019-04-10T22:27:00.856Z,12.73
2019-04-10T22:29:30.777Z,10.93
2019-04-10T22:32:02.023Z,11.20
2019-04-10T22:34:32.276Z,8.80
2019-04-10T22:37:02.909Z,8.87
2019-04-10T22:39:33.633Z,10.23
2019-04-10T22:42:05.301Z,10.57
2019-04-10T22:44:41.983Z,10.37
2019-04-10T22:47:05.593Z,10.27
2019-04-10T22:49:37.092Z,9.17
2019-04-10T22:52:06.973Z,11.03
2019-04-10T22:54:37.475Z,9.80
2019-04-10T22:57:07.925Z,9.67
2019-04-10T22:59:38.485Z,12.23
2019-04-10T23:02:13.122Z,11.83
2019-04-10T23:04:39.846Z,12.70
2019-04-10T23:07:11.447Z,11.87
2019-04-10T23:09:41.231Z,9.93
2019-04-10T23:12:11.657Z,10.27
2019-04-10T23:14:42.770Z,11.80
2019-04-10T23:17:12.774Z,15.93
2019-04-10T23:19:43.301Z,12.83
2019-04-10T23:22:13.938Z,12.80
2019-04-10T23:24:45.545Z,11.27
2019-04-10T23:27:15.169Z,9.70
2019-04-10T23:29:46.581Z,11.03
2019-04-10T23:32:17.287Z,11.23
2019-04-10T23:34:47.193Z,10.93
2019-04-10T23:37:18.334Z,8.80
2019-04-10T23:39:48.219Z,9.87
2019-04-10T23:42:19.125Z,9.47
2019-04-10T23:44:49.161Z,10.23
2019-04-10T23:47:20.094Z,10.43
2019-04-10T23:49:50.209Z,8.53
2019-04-10T23:52:20.674Z,8.70
2019-04-10T23:54:51.378Z,7.90
2019-04-10T23:57:21.834Z,7.83
2019-04-10T23:59:53.135Z,9.13
